Time;durP1;ratioP1;P1;durP2;ratioP2;P2;SDS_P1;SDS_P2;PMS_P1;PMS_P2;Temp;Humidity;BMP_temperature;BMP_pressure;BME280_temperature;BME280_humidity;BME280_pressure;Samples;Min_cycle;Max_cycle;Signal;HPM_P1;HPM_P2
2022/02/24 00:00:10;;;;;;;0.40;0.37;;;-0.90;1.40;;;-0.51;100.00;95785.73;644744;216;31587;-77
2022/02/24 00:02:52;;;;;;;0.80;0.80;;;-0.90;1.40;;;-0.56;100.00;95786.47;618470;226;31982;-75
2022/02/24 00:05:34;;;;;;;0.40;0.40;;;-1.10;1.40;;;-0.62;100.00;95795.22;631494;222;42282;-75
2022/02/24 00:08:16;;;;;;;2.10;0.50;;;-1.10;1.40;;;-0.67;100.00;95794.06;649748;216;31541;-74
2022/02/24 00:10:57;;;;;;;0.70;0.70;;;-1.10;1.40;;;-0.78;100.00;95795.46;647386;212;31574;-75
2022/02/24 00:13:39;;;;;;;0.40;0.40;;;-1.30;1.40;;;-0.79;100.00;95786.70;646423;216;31587;-74
2022/02/24 00:16:21;;;;;;;0.40;0.30;;;-1.20;1.40;;;-0.70;100.00;95783.30;647048;216;42178;-74
2022/02/24 00:19:03;;;;;;;1.10;0.50;;;-1.10;1.40;;;-0.65;100.00;95782.05;644939;212;42582;-77
2022/02/24 00:21:44;;;;;;;0.50;0.40;;;-1.10;1.40;;;-0.56;100.00;95787.02;648609;212;31503;-73
2022/02/24 00:27:00;;;;;;;1.12;0.90;;;-1.00;1.40;;;-0.73;100.00;95780.23;646031;216;31481;-75
2022/02/24 00:29:42;;;;;;;4.40;0.90;;;-1.20;1.40;;;-0.47;100.00;95779.81;646007;212;42164;-74
2022/02/24 00:32:30;;;;;;;0.80;0.80;;;-0.80;1.40;;;-0.35;100.00;95779.03;644330;217;42127;-80
2022/02/24 00:35:52;;;;;;;0.50;0.50;;;-0.60;1.40;;;-0.06;100.00;95780.95;645815;216;31526;-74
2022/02/24 00:38:33;;;;;;;0.40;0.30;;;-0.40;1.40;;;0.25;100.00;95786.07;646855;216;31506;-74
2022/02/24 00:41:15;;;;;;;0.80;0.50;;;0.00;1.40;;;0.44;100.00;95788.75;621705;222;31998;-73
2022/02/24 00:43:57;;;;;;;0.50;0.50;;;0.20;1.40;;;0.58;100.00;95781.95;621491;222;42516;-75
2022/02/24 00:46:39;;;;;;;1.80;0.40;;;0.40;1.40;;;0.60;100.00;95782.63;645116;216;42684;-76
2022/02/24 00:49:23;;;;;;;1.50;0.90;;;0.40;1.40;;;0.87;100.00;95780.94;647037;216;32017;-74
2022/02/24 00:52:05;;;;;;;0.75;0.70;;;0.70;1.40;;;1.06;100.00;95774.35;618140;226;31890;-77
2022/02/24 00:54:53;;;;;;;0.57;0.50;;;0.80;1.40;;;1.04;100.00;95775.39;620442;226;31994;-81
2022/02/24 00:57:41;;;;;;;0.40;0.40;;;0.70;1.40;;;0.94;100.00;95779.88;647390;216;32359;-75
2022/02/24 01:00:23;;;;;;;0.60;0.60;;;0.50;1.40;;;1.05;100.00;95773.17;645856;216;31529;-74
2022/02/24 01:03:04;;;;;;;0.70;0.70;;;0.70;1.40;;;0.93;100.00;95765.52;647091;212;31560;-75
2022/02/24 01:05:46;;;;;;;0.40;0.40;;;0.50;1.40;;;0.98;100.00;95773.72;618345;226;32164;-74
2022/02/24 01:08:31;;;;;;;0.70;0.55;;;0.60;1.40;;;1.00;100.00;95772.95;638197;216;32006;-74
2022/02/24 01:11:13;;;;;;;0.40;0.30;;;0.70;1.40;;;1.12;100.00;95771.24;647675;212;31756;-74
2022/02/24 01:14:11;;;;;;;0.40;0.30;;;0.70;1.40;;;1.11;100.00;95771.16;620177;226;31868;-74
2022/02/24 01:16:56;;;;;;;0.80;0.50;;;0.70;1.40;;;1.08;100.00;95765.27;644944;216;31577;-73
2022/02/24 01:19:38;;;;;;;0.60;0.40;;;0.60;1.40;;;1.03;100.00;95763.52;645127;216;31493;-73
2022/02/24 01:22:19;;;;;;;2.00;0.40;;;0.50;1.40;;;1.01;100.00;95764.05;646252;216;31554;-75
2022/02/24 01:25:01;;;;;;;0.55;0.32;;;0.60;1.40;;;1.03;100.00;95759.52;646630;216;31603;-75
2022/02/24 01:27:44;;;;;;;0.40;0.40;;;0.50;1.40;;;0.98;100.00;95754.41;647000;212;31468;-77
2022/02/24 01:30:25;;;;;;;0.50;0.40;;;0.50;1.40;;;1.08;100.00;95745.15;646503;212;31651;-75
2022/02/24 01:35:51;;;;;;;0.90;0.90;;;0.80;1.40;;;1.14;100.00;95748.16;617076;222;31954;-74
2022/02/24 01:38:33;;;;;;;1.00;0.80;;;0.80;1.40;;;1.23;100.00;95748.28;648837;216;31528;-77
2022/02/24 01:41:14;;;;;;;1.30;1.20;;;0.80;1.40;;;1.21;100.00;95746.16;647720;212;32123;-76
2022/02/24 01:43:56;;;;;;;0.90;0.40;;;0.80;1.40;;;1.13;100.00;95745.74;620921;226;32013;-76
2022/02/24 01:46:44;;;;;;;1.00;0.90;;;0.70;1.40;;;1.12;100.00;95740.44;651242;212;42138;-80
2022/02/24 01:49:31;;;;;;;1.70;0.50;;;0.70;1.40;;;1.07;100.00;95741.07;646077;212;31710;-74
2022/02/24 01:52:13;;;;;;;0.90;0.40;;;0.60;1.40;;;1.06;100.00;95737.47;649354;216;32048;-75
2022/02/24 01:54:55;;;;;;;0.40;0.30;;;0.60;1.40;;;1.01;100.00;95733.05;646338;212;31602;-74
2022/02/24 01:57:37;;;;;;;0.50;0.50;;;0.50;1.40;;;0.97;100.00;95733.55;648481;216;31529;-75
2022/02/24 02:00:21;;;;;;;0.80;0.60;;;0.40;1.40;;;0.96;100.00;95724.52;620918;225;31903;-75
2022/02/24 02:03:03;;;;;;;1.30;0.60;;;0.50;1.40;;;0.97;100.00;95719.88;647394;212;31518;-75
2022/02/24 02:05:45;;;;;;;0.40;0.30;;;0.50;1.40;;;0.85;100.00;95715.67;646566;212;31475;-75
2022/02/24 02:08:27;;;;;;;0.50;0.50;;;0.20;1.40;;;0.93;100.00;95719.45;647329;212;31571;-75
2022/02/24 02:11:08;;;;;;;0.80;0.70;;;0.60;1.40;;;1.09;100.00;95717.03;646249;216;31535;-75
2022/02/24 02:13:50;;;;;;;0.50;0.50;;;0.70;1.40;;;1.12;100.00;95709.47;646585;216;31497;-74
2022/02/24 02:16:33;;;;;;;0.80;0.60;;;0.70;1.40;;;1.16;100.00;95704.80;620062;222;32202;-80
2022/02/24 02:19:21;;;;;;;0.60;0.60;;;0.70;1.40;;;1.17;100.00;95706.73;620745;225;31881;-74
2022/02/24 02:22:03;;;;;;;0.60;0.47;;;0.70;1.40;;;0.98;100.00;95699.73;620233;226;42597;-74
2022/02/24 02:28:41;;;;;;;0.50;0.40;;;0.20;1.40;;;0.74;100.00;95700.45;645551;212;31466;-76
2022/02/24 02:31:28;;;;;;;1.10;0.80;;;0.20;1.40;;;0.71;100.00;95694.04;648011;212;31769;-80
2022/02/24 02:35:52;;;;;;;0.77;0.40;;;0.20;1.40;;;0.65;100.00;95689.54;617708;222;31879;-75
2022/02/24 02:38:37;;;;;;;0.40;0.20;;;0.00;1.40;;;0.60;100.00;95685.28;631366;222;31764;-74
2022/02/24 02:41:18;;;;;;;0.55;0.50;;;-0.10;1.40;;;0.54;100.00;95691.16;650316;216;31659;-75
2022/02/24 02:44:00;;;;;;;0.60;0.60;;;-0.10;1.40;;;0.71;100.00;95691.47;648440;216;31490;-77
2022/02/24 02:46:41;;;;;;;0.40;0.30;;;0.10;1.40;;;0.70;100.00;95684.52;647940;216;31584;-75
2022/02/24 02:49:23;;;;;;;0.50;0.50;;;0.10;1.40;;;0.66;100.00;95684.91;644380;216;36079;-77
2022/02/24 02:52:06;;;;;;;0.40;0.20;;;0.00;1.40;;;0.56;100.00;95681.03;648375;216;31589;-75
2022/02/24 02:54:50;;;;;;;0.40;0.30;;;-0.10;1.40;;;0.59;100.00;95672.88;648019;216;31517;-75
2022/02/24 02:57:31;;;;;;;0.40;0.35;;;0.00;1.40;;;0.62;100.00;95670.75;648874;212;31592;-74
2022/02/24 03:00:14;;;;;;;0.50;0.50;;;0.00;1.40;;;0.66;100.00;95669.98;647477;216;31481;-73
2022/02/24 03:03:01;;;;;;;0.60;0.60;;;0.00;1.40;;;0.55;100.00;95662.53;647844;216;31512;-73
2022/02/24 03:05:43;;;;;;;0.50;0.50;;;-0.10;1.40;;;0.53;100.00;95662.76;648433;212;42982;-73
2022/02/24 03:08:25;;;;;;;0.50;0.50;;;-0.10;1.40;;;0.49;100.00;95656.92;635480;212;31659;-73
2022/02/24 03:11:09;;;;;;;0.70;0.70;;;-0.10;1.40;;;0.41;100.00;95659.89;645513;212;32155;-76
2022/02/24 03:13:51;;;;;;;0.50;0.50;;;-0.10;1.40;;;0.47;100.00;95653.88;645102;216;32290;-73
2022/02/24 03:16:33;;;;;;;0.60;0.40;;;-0.10;1.40;;;0.46;100.00;95650.94;646396;216;31626;-74
2022/02/24 03:19:14;;;;;;;0.80;0.50;;;-0.10;1.40;;;0.48;100.00;95647.19;620195;222;31934;-73
2022/02/24 03:21:59;;;;;;;0.40;0.40;;;-0.10;1.40;;;0.41;100.00;95650.03;648613;212;32175;-76
2022/02/24 03:24:41;;;;;;;0.45;0.40;;;-0.10;1.40;;;0.36;100.00;95645.91;645969;216;31465;-76
2022/02/24 03:27:26;;;;;;;0.40;0.35;;;-0.10;1.40;;;0.35;100.00;95645.52;645015;216;31777;-74
2022/02/24 03:30:08;;;;;;;0.50;0.40;;;-0.20;1.40;;;0.37;100.00;95643.30;617663;222;31828;-75
2022/02/24 03:32:50;;;;;;;0.60;0.60;;;-0.10;1.40;;;0.50;100.00;95639.34;647559;216;31533;-75
2022/02/24 03:35:51;;;;;;;0.45;0.45;;;-0.20;1.40;;;0.40;100.00;95633.76;619989;222;32409;-77
2022/02/24 03:38:33;;;;;;;0.60;0.60;;;-0.40;1.40;;;0.29;100.00;95630.04;620046;226;31864;-74
2022/02/24 03:41:14;;;;;;;0.50;0.50;;;-0.50;1.40;;;0.31;100.00;95635.56;644970;216;31537;-73
2022/02/24 03:43:56;;;;;;;0.50;0.45;;;-0.40;1.40;;;0.24;100.00;95637.34;647480;216;42146;-74
2022/02/24 03:46:38;;;;;;;0.60;0.40;;;-0.60;1.40;;;0.07;100.00;95636.33;649041;212;35057;-73
2022/02/24 03:49:23;;;;;;;0.40;0.30;;;-1.00;1.40;;;-0.10;100.00;95635.88;647295;212;42332;-76
2022/02/24 03:52:10;;;;;;;0.40;0.32;;;-1.20;1.40;;;-0.06;100.00;95633.41;646249;216;31545;-80
2022/02/24 03:54:58;;;;;;;0.50;0.50;;;-0.90;1.40;;;-0.01;100.00;95632.59;646781;216;42712;-74
2022/02/24 03:57:40;;;;;;;0.40;0.30;;;-0.80;1.40;;;0.12;100.00;95629.19;619245;226;32068;-74
2022/02/24 04:00:24;;;;;;;0.50;0.30;;;-0.50;1.40;;;-0.06;100.00;95629.56;646129;216;31822;-76
2022/02/24 04:03:12;;;;;;;0.40;0.30;;;-0.70;1.40;;;-0.13;100.00;95629.09;646233;216;42105;-80
2022/02/24 04:06:00;;;;;;;0.50;0.40;;;-0.80;1.40;;;0.03;100.00;95617.58;645365;216;31470;-74
2022/02/24 04:08:42;;;;;;;2.40;0.70;;;-0.50;1.40;;;-0.09;100.00;95613.94;649166;216;31531;-75
2022/02/24 04:11:23;;;;;;;0.40;0.40;;;-0.90;1.40;;;-0.42;100.00;95610.27;645931;216;31515;-74
2022/02/24 04:14:06;;;;;;;0.40;0.20;;;-1.30;1.40;;;-0.44;100.00;95610.18;647275;216;32119;-74
2022/02/24 04:16:49;;;;;;;0.90;0.50;;;-1.50;1.40;;;-0.74;100.00;95599.86;647705;212;31502;-78
2022/02/24 04:19:36;;;;;;;0.40;0.30;;;-1.50;1.40;;;-0.88;100.00;95593.86;646609;212;31485;-76
2022/02/24 04:22:18;;;;;;;0.40;0.30;;;-1.50;1.40;;;-0.84;100.00;95592.67;617872;222;31832;-74
2022/02/24 04:25:00;;;;;;;0.40;0.35;;;-1.40;1.40;;;-0.61;100.00;95589.63;618963;222;32555;-76
2022/02/24 04:27:46;;;;;;;1.00;0.90;;;-1.00;1.40;;;-0.59;100.00;95589.84;646445;212;31498;-74
2022/02/24 04:33:01;;;;;;;0.40;0.30;;;-0.90;1.40;;;-0.49;100.00;95583.64;646675;212;31521;-74
2022/02/24 04:35:51;;;;;;;0.40;0.30;;;-1.10;1.40;;;-0.70;100.00;95586.50;646722;216;32077;-74
2022/02/24 04:38:32;;;;;;;0.40;0.30;;;-1.50;1.40;;;-0.90;100.00;95585.66;619249;222;32028;-74
2022/02/24 04:41:14;;;;;;;0.40;0.30;;;-1.60;1.40;;;-0.93;100.00;95587.67;647314;212;31536;-76
2022/02/24 04:43:56;;;;;;;0.40;0.40;;;-1.60;1.40;;;-0.94;100.00;95585.59;649587;212;31497;-73
2022/02/24 04:46:38;;;;;;;0.50;0.50;;;-1.60;1.40;;;-0.86;100.00;95580.34;647272;216;32124;-75
2022/02/24 04:49:19;;;;;;;0.70;0.60;;;-1.40;1.40;;;-0.85;100.00;95577.64;647354;216;31742;-76
2022/02/24 04:52:04;;;;;;;0.80;0.60;;;-1.40;1.40;;;-0.81;100.00;95575.45;647441;216;31513;-74
2022/02/24 04:54:52;;;;;;;0.40;0.40;;;-1.40;1.40;;;-0.84;100.00;95568.41;649635;216;42145;-79
2022/02/24 04:57:40;;;;;;;0.40;0.30;;;-1.50;1.40;;;-0.93;100.00;95568.20;648570;216;31537;-76
2022/02/24 05:00:22;;;;;;;0.40;0.30;;;-1.50;1.40;;;-0.89;100.00;95571.27;648746;212;31947;-74
2022/02/24 05:03:03;;;;;;;0.70;0.70;;;-1.50;1.40;;;-0.86;100.00;95564.53;647451;212;31457;-74
2022/02/24 05:05:45;;;;;;;0.40;0.37;;;-1.50;1.40;;;-0.84;100.00;95561.44;646961;216;31621;-76
2022/02/24 05:08:27;;;;;;;0.40;0.40;;;-1.40;1.40;;;-0.80;100.00;95557.27;635914;216;42304;-73
2022/02/24 05:11:09;;;;;;;0.40;0.30;;;-1.40;1.40;;;-0.88;100.00;95547.50;648578;212;31495;-74
2022/02/24 05:13:53;;;;;;;0.60;0.50;;;-1.40;1.40;;;-0.88;100.00;95551.29;618915;222;31827;-74
2022/02/24 05:16:35;;;;;;;0.40;0.30;;;-1.50;1.40;;;-0.91;100.00;95546.81;649366;216;31503;-77
2022/02/24 05:19:17;;;;;;;1.10;0.50;;;-1.60;1.40;;;-0.95;100.00;95546.25;648827;216;32254;-75
2022/02/24 05:21:58;;;;;;;0.40;0.30;;;-1.70;1.40;;;-0.95;100.00;95542.90;647146;212;31958;-75
2022/02/24 05:24:40;;;;;;;0.40;0.20;;;-1.60;1.40;;;-0.97;100.00;95544.28;646986;216;31525;-74
2022/02/24 05:27:25;;;;;;;1.08;0.70;;;-1.70;1.40;;;-0.97;100.00;95538.75;646463;216;32378;-76
2022/02/24 05:30:07;;;;;;;0.50;0.50;;;-1.70;1.40;;;-1.02;100.00;95538.20;648388;212;31516;-74
2022/02/24 05:32:52;;;;;;;0.50;0.40;;;-1.50;1.40;;;-0.74;100.00;95540.14;648973;212;32092;-74
2022/02/24 05:35:51;;;;;;;0.40;0.30;;;-1.10;1.40;;;-0.59;100.00;95532.17;646202;216;32402;-74
2022/02/24 05:38:35;;;;;;;0.40;0.30;;;-1.10;1.40;;;-0.70;100.00;95533.52;646243;212;42094;-74
2022/02/24 05:41:22;;;;;;;0.50;0.40;;;-1.20;1.40;;;-0.47;100.00;95532.19;647880;212;31529;-78
2022/02/24 05:44:10;;;;;;;0.40;0.30;;;-1.00;1.40;;;-0.37;100.00;95527.54;644763;216;32022;-74
2022/02/24 05:46:51;;;;;;;0.60;0.60;;;-0.90;1.40;;;-0.43;100.00;95532.61;647401;212;31491;-75
2022/02/24 05:49:37;;;;;;;3.30;0.60;;;-0.90;1.40;;;-0.20;100.00;95536.05;647474;216;31485;-76
2022/02/24 05:52:18;;;;;;;0.40;0.30;;;-0.60;1.40;;;-0.12;100.00;95528.47;648396;216;31569;-74
2022/02/24 05:55:00;;;;;;;0.40;0.30;;;-0.50;1.40;;;-0.08;100.00;95528.38;648914;212;43010;-74
2022/02/24 05:57:42;;;;;;;0.40;0.40;;;-0.50;1.40;;;0.15;100.00;95528.86;646140;212;31501;-75
2022/02/24 06:00:24;;;;;;;0.50;0.50;;;-0.20;1.40;;;0.25;100.00;95526.64;649244;216;42352;-74
2022/02/24 06:02:58;;;;;;;0.63;0.63;;;-0.10;1.40;;;0.28;100.00;95523.48;641146;220;26856;-75
2022/02/24 06:05:40;;;;;;;0.40;0.30;;;-0.10;1.40;;;0.42;100.00;95524.63;645606;216;42095;-75
2022/02/24 06:08:21;;;;;;;2.17;0.57;;;0.00;1.40;;;0.52;100.00;95528.59;609062;222;42877;-75
2022/02/24 06:11:05;;;;;;;0.40;0.30;;;0.00;1.40;;;0.52;100.00;95525.81;619034;226;31970;-80
2022/02/24 06:13:48;;;;;;;0.70;0.70;;;0.10;1.40;;;0.60;100.00;95518.95;621143;225;31839;-79
2022/02/24 06:16:36;;;;;;;0.60;0.30;;;0.20;1.40;;;0.62;100.00;95522.45;644516;216;42117;-75
2022/02/24 06:19:17;;;;;;;0.68;0.68;;;0.20;1.40;;;0.61;100.00;95519.19;618549;226;31884;-76
2022/02/24 06:22:08;;;;;;;0.50;0.50;;;0.20;1.40;;;0.63;100.00;95523.21;646133;216;31775;-79
2022/02/24 06:24:56;;;;;;;0.52;0.50;;;0.20;1.40;;;0.65;100.00;95521.27;646086;216;31630;-74
2022/02/24 06:27:38;;;;;;;0.60;0.60;;;0.20;1.40;;;0.68;100.00;95519.19;644512;216;42155;-74
2022/02/24 06:30:20;;;;;;;1.00;1.00;;;0.20;1.40;;;0.64;100.00;95519.70;647021;212;42171;-75
2022/02/24 06:35:53;;;;;;;0.43;0.43;;;0.10;1.40;;;0.79;100.00;95514.44;645659;212;31992;-77
2022/02/24 06:38:37;;;;;;;0.40;0.28;;;0.30;1.40;;;0.95;100.00;95514.84;645404;215;32122;-74
2022/02/24 06:41:20;;;;;;;0.90;0.40;;;0.60;1.40;;;1.10;100.00;95520.88;643052;214;31485;-75
2022/02/24 06:44:01;;;;;;;0.50;0.40;;;0.70;1.40;;;1.20;100.00;95517.12;646050;216;31522;-75
2022/02/24 06:46:44;;;;;;;0.57;0.55;;;0.70;1.40;;;1.29;100.00;95517.73;645512;216;31511;-77
2022/02/24 06:49:28;;;;;;;0.40;0.30;;;0.90;1.40;;;1.43;100.00;95516.53;619827;222;32895;-75
2022/02/24 06:52:10;;;;;;;0.40;0.30;;;1.00;1.40;;;1.52;100.00;95514.97;646395;216;31662;-77
2022/02/24 06:54:52;;;;;;;0.60;0.30;;;1.00;1.40;;;1.59;100.00;95515.77;647090;212;41807;-74
2022/02/24 06:57:40;;;;;;;0.80;0.55;;;1.10;1.40;;;1.67;100.00;95510.58;646251;216;32150;-76
2022/02/24 07:00:22;;;;;;;0.40;0.30;;;1.20;1.40;;;1.76;100.00;95516.72;647271;212;31522;-74
2022/02/24 07:03:04;;;;;;;1.90;0.40;;;1.20;1.40;;;1.85;100.00;95510.09;650006;216;31817;-78
2022/02/24 07:05:46;;;;;;;1.20;0.50;;;1.30;1.40;;;1.89;100.00;95504.82;646070;212;31516;-74
2022/02/24 07:08:27;;;;;;;0.60;0.60;;;1.40;1.40;;;2.11;100.00;95506.18;636248;216;31646;-75
2022/02/24 07:11:09;;;;;;;0.50;0.40;;;1.40;1.40;;;2.18;100.00;95506.95;620445;222;32161;-75
2022/02/24 07:13:51;;;;;;;0.40;0.30;;;1.60;1.40;;;2.38;100.00;95509.66;645800;212;31493;-74
2022/02/24 07:16:45;;;;;;;0.70;0.40;;;1.60;1.40;;;2.54;100.00;95507.45;646757;212;31497;-79
2022/02/24 07:19:32;;;;;;;1.00;0.30;;;1.80;1.40;;;2.63;100.00;95508.16;644000;216;31610;-77
2022/02/24 07:22:19;;;;;;;0.53;0.40;;;1.90;1.40;;;2.74;100.00;95505.26;647144;212;40125;-75
2022/02/24 07:25:01;;;;;;;0.70;0.70;;;2.10;1.40;;;2.95;100.00;95510.07;645802;212;31866;-74
2022/02/24 07:27:42;;;;;;;0.40;0.30;;;2.20;1.40;;;3.00;100.00;95503.34;645560;216;31542;-75
2022/02/24 07:30:27;;;;;;;0.80;0.40;;;2.40;1.40;;;3.22;100.00;95498.93;618790;226;31990;-75
2022/02/24 07:35:51;;;;;;;0.40;0.30;;;2.60;1.40;;;3.59;100.00;95491.56;641374;216;31492;-75
2022/02/24 07:38:32;;;;;;;0.40;0.40;;;2.80;1.40;;;3.82;100.00;95493.53;619437;222;32310;-75
2022/02/24 07:41:14;;;;;;;0.50;0.50;;;2.90;1.40;;;3.98;100.00;95497.81;618313;222;31846;-75
2022/02/24 07:43:59;;;;;;;0.40;0.30;;;3.10;1.40;;;4.13;100.00;95500.75;646584;213;32140;-75
2022/02/24 07:46:40;;;;;;;0.60;0.50;;;3.20;1.40;;;4.27;100.00;95503.59;646174;212;31505;-76
2022/02/24 07:49:24;;;;;;;0.60;0.40;;;3.40;1.40;;;4.46;100.00;95496.75;645742;213;31516;-77
2022/02/24 07:52:11;;;;;;;0.40;0.40;;;3.50;1.40;;;4.64;100.00;95495.05;620561;222;42522;-78
2022/02/24 07:54:58;;;;;;;0.40;0.40;;;3.60;1.40;;;4.59;100.00;95499.59;645460;216;31480;-75
2022/02/24 07:57:43;;;;;;;0.80;0.50;;;3.60;1.40;;;4.99;100.00;95494.33;646468;216;31515;-75
2022/02/24 08:00:24;;;;;;;1.00;0.50;;;3.80;1.40;;;5.19;100.00;95494.20;644307;216;42098;-75
2022/02/24 08:03:06;;;;;;;1.00;0.60;;;3.90;1.40;;;5.16;100.00;95492.26;649902;216;42169;-75
2022/02/24 08:05:54;;;;;;;0.50;0.30;;;4.00;1.40;;;5.20;100.00;95490.16;630948;222;42286;-80
2022/02/24 08:08:42;;;;;;;0.40;0.20;;;4.20;1.40;;;5.66;100.00;95481.63;635216;221;31687;-76
2022/02/24 08:11:24;;;;;;;0.60;0.50;;;4.40;1.40;;;5.95;100.00;95480.37;645852;216;31526;-76
2022/02/24 08:14:05;;;;;;;0.50;0.40;;;4.60;1.40;;;6.09;100.00;95478.62;646280;212;31559;-76
2022/02/24 08:16:50;;;;;;;0.47;0.43;;;4.70;1.40;;;5.80;100.00;95477.31;645177;212;32065;-75
2022/02/24 08:19:34;;;;;;;1.25;0.60;;;4.50;1.40;;;5.83;100.00;95478.39;621960;222;32372;-79
2022/02/24 08:22:16;;;;;;;0.40;0.30;;;4.60;1.40;;;6.42;100.00;95477.55;621068;226;31865;-79
2022/02/24 08:25:03;;;;;;;0.40;0.30;;;5.00;1.40;;;6.41;100.00;95472.06;646454;216;31829;-75
2022/02/24 08:27:51;;;;;;;0.60;0.40;;;5.00;1.40;;;6.69;100.00;95466.43;647161;216;31466;-80
2022/02/24 08:30:36;;;;;;;0.90;0.60;;;5.30;1.40;;;6.84;100.00;95464.47;649474;216;31470;-78
2022/02/24 08:35:51;;;;;;;0.52;0.35;;;5.50;1.40;;;6.92;100.00;95466.16;646483;216;31536;-75
2022/02/24 08:38:39;;;;;;;0.60;0.33;;;5.50;1.40;;;7.08;100.00;95462.51;620995;222;32635;-79
2022/02/24 08:41:27;;;;;;;1.33;0.50;;;5.60;1.40;;;6.93;100.00;95461.09;648177;212;31493;-75
2022/02/24 08:44:09;;;;;;;0.50;0.40;;;5.60;1.40;;;6.98;100.00;95457.39;646845;216;32081;-76
2022/02/24 08:46:53;;;;;;;0.40;0.30;;;5.80;1.40;;;7.47;100.00;95459.58;643228;216;31485;-79
2022/02/24 08:49:41;;;;;;;0.57;0.43;;;6.20;1.40;;;7.24;100.00;95456.92;648228;216;31505;-76
2022/02/24 08:54:57;;;;;;;1.00;0.77;;;6.10;1.40;;;7.75;100.00;95445.92;647436;216;32963;-76
2022/02/24 08:57:45;;;;;;;2.12;0.68;;;6.70;1.40;;;8.01;100.00;95443.59;648589;212;31739;-77
2022/02/24 09:00:36;;;;;;;0.83;0.77;;;6.90;1.40;;;8.25;100.00;95440.66;621852;226;31895;-75
2022/02/24 09:03:23;;;;;;;1.07;0.97;;;7.20;1.40;;;8.33;100.00;95439.26;619359;226;31841;-79
2022/02/24 09:06:11;;;;;;;1.10;1.00;;;7.30;1.40;;;8.49;100.00;95437.42;645976;216;32078;-76
2022/02/24 09:08:52;;;;;;;1.80;1.20;;;7.40;1.40;;;8.53;100.00;95427.16;645713;216;31580;-76
2022/02/24 09:11:34;;;;;;;1.40;0.60;;;7.70;1.40;;;9.72;100.00;95423.59;645251;212;31519;-75
2022/02/24 09:14:16;;;;;;;1.43;0.60;;;9.80;1.40;;;11.19;99.49;95419.29;647057;216;31527;-76
2022/02/24 09:16:58;;;;;;;0.90;0.70;;;11.20;1.40;;;13.12;88.16;95413.98;646381;216;31607;-75
2022/02/24 09:19:40;;;;;;;1.23;0.80;;;13.20;1.40;;;15.32;76.51;95410.74;647502;216;31549;-76
2022/02/24 09:22:22;;;;;;;0.77;0.60;;;15.10;1.40;;;16.50;68.81;95412.55;646432;216;42129;-76
2022/02/24 09:25:05;;;;;;;1.00;0.70;;;15.80;1.40;;;18.06;69.18;95400.95;645596;216;31540;-76
2022/02/24 09:27:49;;;;;;;0.82;0.40;;;15.50;1.40;;;18.29;58.17;95406.08;644612;216;32255;-76
2022/02/24 09:30:37;;;;;;;0.50;0.40;;;14.70;1.40;;;17.16;60.09;95411.75;621479;226;42682;-77
2022/02/24 09:35:51;;;;;;;1.30;0.70;;;13.60;1.40;;;18.34;61.13;95403.08;645634;216;34184;-76
2022/02/24 09:38:33;;;;;;;1.20;0.60;;;14.10;1.40;;;18.82;64.07;95400.55;646083;216;31626;-76
2022/02/24 09:41:15;;;;;;;0.50;0.50;;;14.60;1.40;;;19.32;64.30;95395.23;648174;216;31564;-76
2022/02/24 09:43:57;;;;;;;0.88;0.65;;;14.90;1.40;;;18.96;57.39;95392.20;649399;216;31454;-76
2022/02/24 09:46:41;;;;;;;1.20;0.70;;;14.80;1.40;;;19.79;52.43;95385.50;647973;216;31539;-77
2022/02/24 09:49:23;;;;;;;1.08;0.90;;;16.60;1.40;;;20.60;51.48;95388.28;618167;226;31949;-77
2022/02/24 09:52:05;;;;;;;2.03;1.17;;;18.30;1.40;;;23.33;55.30;95378.74;645906;212;31520;-77
2022/02/24 09:54:53;;;;;;;2.47;0.77;;;19.70;1.40;;;22.87;39.04;95380.88;648589;212;31535;-76
2022/02/24 09:57:36;;;;;;;0.70;0.60;;;19.00;1.40;;;20.56;45.45;95386.49;646825;216;31625;-78
2022/02/24 10:00:24;;;;;;;0.70;0.40;;;18.60;1.40;;;20.64;43.17;95383.03;647190;216;31753;-76
2022/02/24 10:03:26;;;;;;;0.50;0.32;;;17.40;1.40;;;20.86;43.46;95372.36;647065;212;42113;-76
2022/02/24 10:06:15;;;;;;;0.80;0.40;;;18.30;1.40;;;20.77;43.65;95365.14;617820;226;32382;-76
2022/02/24 10:08:57;;;;;;;1.70;0.40;;;18.30;1.40;;;20.74;39.83;95368.06;631786;222;31830;-77
2022/02/24 10:11:40;;;;;;;0.70;0.60;;;18.20;1.40;;;20.56;38.29;95375.50;646940;216;31583;-78
2022/02/24 10:14:31;;;;;;;0.60;0.50;;;16.70;1.40;;;20.95;38.14;95372.28;647819;212;31650;-76
2022/02/24 10:17:13;;;;;;;1.42;0.90;;;18.30;1.40;;;19.14;40.42;95361.11;619245;222;32441;-76
2022/02/24 10:20:00;;;;;;;1.45;0.73;;;18.10;1.40;;;20.23;40.91;95360.27;642365;217;32129;-78
2022/02/24 10:22:45;;;;;;;1.70;0.60;;;18.00;1.40;;;20.20;39.06;95350.20;645940;212;31595;-76
2022/02/24 10:25:38;;;;;;;0.80;0.70;;;17.40;1.40;;;19.38;40.04;95350.16;647844;216;31466;-77
2022/02/24 10:28:35;;;;;;;0.60;0.50;;;17.00;1.40;;;17.43;41.73;95350.45;646412;216;31456;-75
2022/02/24 10:31:23;;;;;;;0.70;0.52;;;15.70;1.40;;;17.75;40.45;95338.20;646555;216;31470;-75
2022/02/24 10:35:51;;;;;;;1.10;0.40;;;16.80;1.40;;;18.44;42.61;95331.49;646089;216;31526;-75
2022/02/24 10:38:33;;;;;;;1.12;0.40;;;17.40;1.40;;;19.81;39.43;95335.75;645891;216;31583;-75
2022/02/24 10:41:15;;;;;;;1.30;0.60;;;18.20;1.40;;;17.87;41.15;95343.19;619199;226;31833;-76
2022/02/24 10:44:14;;;;;;;1.60;1.00;;;16.40;1.40;;;18.53;42.17;95336.76;648089;216;31641;-77
2022/02/24 10:47:11;;;;;;;1.25;0.70;;;17.90;1.40;;;18.65;40.72;95327.16;647677;212;31521;-77
2022/02/24 10:49:54;;;;;;;1.40;0.80;;;17.40;1.40;;;19.27;40.64;95311.32;647224;212;31682;-77
2022/02/24 10:52:39;;;;;;;2.50;0.98;;;18.20;1.40;;;19.94;38.53;95310.27;646734;216;31524;-79
2022/02/24 10:55:27;;;;;;;0.73;0.60;;;18.90;1.40;;;20.38;37.86;95311.68;646505;216;31605;-74
2022/02/24 10:58:14;;;;;;;0.70;0.50;;;18.90;1.40;;;22.20;35.37;95299.64;646320;212;31563;-78
2022/02/24 11:01:10;;;;;;;2.00;0.70;;;19.40;1.40;;;20.98;38.68;95298.72;647478;212;33428;-79
2022/02/24 11:03:54;;;;;;;1.85;0.75;;;18.90;1.40;;;19.82;39.30;95296.66;647219;216;31467;-79
2022/02/24 11:06:36;;;;;;;1.45;0.55;;;18.30;1.40;;;21.50;36.87;95286.11;642675;216;31714;-79
2022/02/24 11:09:17;;;;;;;1.73;0.98;;;19.20;1.40;;;21.16;37.56;95287.99;647756;212;31673;-77
2022/02/24 11:14:36;;;;;;;1.45;0.80;;;18.40;1.40;;;19.56;40.66;95282.14;618665;226;31886;-76
2022/02/24 11:17:19;;;;;;;0.70;0.60;;;18.70;1.40;;;20.68;37.76;95269.75;646036;212;31537;-75
2022/02/24 11:19:59;;;;;;;0.60;0.50;;;17.80;1.40;;;21.17;37.13;95255.63;645769;216;31906;-76
2022/02/24 11:22:41;;;;;;;1.00;0.50;;;18.20;1.40;;;20.62;37.80;95245.27;646838;216;31501;-76
2022/02/24 11:25:28;;;;;;;2.23;1.20;;;18.30;1.40;;;21.13;36.74;95245.34;646704;216;42130;-75
2022/02/24 11:28:08;;;;;;;1.20;0.80;;;18.40;1.40;;;20.59;37.95;95252.53;645677;216;31612;-76
2022/02/24 11:30:49;;;;;;;1.40;1.00;;;18.90;1.40;;;22.53;36.51;95242.54;647486;216;31497;-75
2022/02/24 11:36:07;;;;;;;1.10;0.80;;;18.70;1.40;;;19.94;36.69;95245.58;647324;216;36759;-77
2022/02/24 11:39:05;;;;;;;1.00;0.45;;;17.80;1.40;;;19.95;37.44;95241.27;646510;216;31472;-78
2022/02/24 11:41:54;;;;;;;1.30;0.50;;;17.80;1.40;;;20.61;37.18;95242.52;646552;216;31499;-76
2022/02/24 11:44:40;;;;;;;0.90;0.50;;;18.50;1.40;;;20.03;36.71;95236.47;646278;216;31528;-75
2022/02/24 11:47:30;;;;;;;0.70;0.60;;;18.00;1.40;;;20.77;36.14;95221.37;648748;216;31518;-78
2022/02/24 11:50:12;;;;;;;1.40;1.00;;;18.60;1.40;;;21.45;35.61;95218.11;647876;216;39546;-77
2022/02/24 11:52:59;;;;;;;1.17;0.73;;;18.20;1.40;;;20.51;37.43;95215.96;646141;216;32208;-76
2022/02/24 11:55:47;;;;;;;1.30;0.47;;;18.60;1.40;;;20.43;36.74;95213.00;646155;216;31519;-75
2022/02/24 11:59:03;;;;;;;1.40;1.10;;;19.10;1.40;;;20.75;37.10;95208.13;646868;212;31546;-75
2022/02/24 12:01:44;;;;;;;1.10;0.90;;;18.30;1.40;;;19.66;37.68;95203.30;646484;216;31544;-76
2022/02/24 12:04:29;;;;;;;1.87;1.10;;;17.60;1.40;;;19.15;38.61;95191.77;648239;216;42735;-76
2022/02/24 12:07:14;;;;;;;1.48;0.60;;;17.30;1.40;;;18.42;38.45;95185.22;641462;212;42939;-77
2022/02/24 12:10:09;;;;;;;0.80;0.52;;;16.40;1.40;;;19.00;38.92;95178.00;646779;212;31852;-74
2022/02/24 12:26:14;;;;;;;1.40;0.40;;;16.90;1.40;;;18.78;37.92;95163.47;618819;222;32575;-77